Time;durP1;ratioP1;P1;durP2;ratioP2;P2;SDS_P1;SDS_P2;PMS_P1;PMS_P2;Temp;Humidity;BMP_temperature;BMP_pressure;BME280_temperature;BME280_humidity;BME280_pressure;Samples;Min_cycle;Max_cycle;Signal;HPM_P1;HPM_P2
2022/07/06 00:01:22;;;;;;;12.07;2.05;;;14.80;99.90;;;;;;5036425;28;20087;-66
2022/07/06 00:03:48;;;;;;;3.97;1.67;;;14.80;99.90;;;;;;5053643;28;20037;-66
2022/07/06 00:06:14;;;;;;;3.88;1.38;;;14.80;99.90;;;;;;5055042;28;20047;-66
2022/07/06 00:08:39;;;;;;;6.00;1.10;;;14.80;99.90;;;;;;5036723;28;20056;-66
2022/07/06 00:11:05;;;;;;;3.97;0.88;;;15.00;99.90;;;;;;5053277;28;20478;-66
2022/07/06 00:13:31;;;;;;;4.65;1.58;;;14.80;99.90;;;;;;5054989;28;20401;-66
2022/07/06 00:15:57;;;;;;;4.35;1.05;;;14.90;99.90;;;;;;5052648;28;20047;-66
2022/07/06 00:18:23;;;;;;;4.18;1.17;;;14.80;99.90;;;;;;5053849;28;20037;-66
2022/07/06 00:20:48;;;;;;;4.57;1.42;;;14.90;99.90;;;;;;5053152;28;20067;-66
2022/07/06 00:23:14;;;;;;;6.03;1.20;;;14.90;99.90;;;;;;5052607;28;20110;-66
2022/07/06 00:25:40;;;;;;;3.88;1.15;;;14.90;99.90;;;;;;5054768;28;20102;-66
2022/07/06 00:28:06;;;;;;;3.75;1.38;;;14.90;99.90;;;;;;5054210;28;20482;-66
2022/07/06 00:30:31;;;;;;;4.18;1.30;;;15.70;99.90;;;;;;5035880;28;20162;-66
2022/07/06 00:32:58;;;;;;;3.05;0.80;;;16.20;99.90;;;;;;5052989;28;20449;-66
2022/07/06 00:35:24;;;;;;;4.60;1.23;;;14.90;99.90;;;;;;5053364;28;20512;-66
2022/07/06 00:37:50;;;;;;;5.75;0.98;;;14.80;99.90;;;;;;5052202;28;20049;-66
2022/07/06 00:40:16;;;;;;;2.33;0.82;;;15.20;99.90;;;;;;5054187;28;20044;-66
2022/07/06 00:42:43;;;;;;;4.95;1.15;;;15.10;99.90;;;;;;5053636;28;20044;-66
2022/07/06 00:45:11;;;;;;;3.42;0.93;;;14.90;99.90;;;;;;5053306;28;20052;-66
2022/07/06 00:47:37;;;;;;;4.28;1.20;;;14.80;99.90;;;;;;5053130;28;20052;-66
2022/07/06 00:50:13;;;;;;;6.72;1.30;;;15.00;99.90;;;;;;5051640;28;20045;-67
2022/07/06 00:52:44;;;;;;;5.85;1.02;;;14.80;99.90;;;;;;5036376;28;20478;-66
2022/07/06 00:55:10;;;;;;;7.82;1.48;;;14.80;99.90;;;;;;5054121;28;20398;-66
2022/07/06 00:57:36;;;;;;;3.75;1.15;;;14.80;99.90;;;;;;5052234;28;20499;-65
2022/07/06 01:00:08;;;;;;;6.05;1.75;;;14.90;99.90;;;;;;5035769;28;20051;-66
2022/07/06 01:02:35;;;;;;;4.82;1.10;;;14.80;99.90;;;;;;5054268;28;20041;-66
2022/07/06 01:05:04;;;;;;;6.95;1.42;;;14.80;99.90;;;;;;5051569;28;20048;-66
2022/07/06 01:07:30;;;;;;;5.82;1.52;;;14.90;99.90;;;;;;5053941;28;20063;-66
2022/07/06 01:09:56;;;;;;;4.22;1.30;;;14.90;99.90;;;;;;5053170;28;20486;-66
2022/07/06 01:12:22;;;;;;;7.32;1.65;;;14.80;99.90;;;;;;5053381;28;20040;-66
2022/07/06 01:14:48;;;;;;;8.93;1.98;;;14.80;99.90;;;;;;5053835;28;20048;-66
2022/07/06 01:17:15;;;;;;;4.97;1.17;;;14.90;99.90;;;;;;5053871;28;20037;-66
2022/07/06 01:19:40;;;;;;;7.05;1.33;;;14.80;99.90;;;;;;5051750;28;20041;-66
2022/07/06 01:22:06;;;;;;;7.00;1.30;;;14.80;99.90;;;;;;5051670;28;20053;-66
2022/07/06 01:24:35;;;;;;;8.07;1.80;;;14.90;99.90;;;;;;5054003;28;20037;-66
2022/07/06 01:27:01;;;;;;;4.03;1.27;;;14.80;99.90;;;;;;5052406;28;20033;-66
2022/07/06 01:29:27;;;;;;;4.35;1.30;;;14.80;99.90;;;;;;5052237;28;20580;-66
2022/07/06 01:31:52;;;;;;;4.40;1.00;;;14.80;99.90;;;;;;5051997;28;20037;-66
2022/07/06 01:34:19;;;;;;;6.13;1.65;;;14.90;99.90;;;;;;5052772;28;20082;-66
2022/07/06 01:36:45;;;;;;;3.38;1.15;;;14.80;99.90;;;;;;5051291;28;20525;-66
2022/07/06 01:39:11;;;;;;;5.70;1.20;;;14.80;99.90;;;;;;5034403;28;20040;-66
2022/07/06 01:41:37;;;;;;;7.22;2.03;;;15.20;99.90;;;;;;5052170;28;20034;-66
2022/07/06 01:44:04;;;;;;;4.10;2.13;;;14.70;99.90;;;;;;5051479;28;20049;-66
2022/07/06 01:46:30;;;;;;;6.03;1.30;;;14.70;99.90;;;;;;5051515;28;20120;-66
2022/07/06 01:48:56;;;;;;;6.22;1.40;;;15.20;99.90;;;;;;5051720;28;20390;-66
2022/07/06 01:51:23;;;;;;;3.72;1.40;;;15.30;99.90;;;;;;5035192;28;20051;-66
2022/07/06 01:53:49;;;;;;;5.72;1.20;;;14.80;99.90;;;;;;5034573;28;20128;-65
2022/07/06 01:56:15;;;;;;;4.03;1.33;;;15.80;99.90;;;;;;5051523;28;20045;-65
2022/07/06 01:58:41;;;;;;;7.25;1.50;;;;;;;;;;5053281;28;20048;-66
2022/07/06 02:01:09;;;;;;;7.90;1.50;;;14.60;99.90;;;;;;5050587;28;20118;-66
2022/07/06 02:03:35;;;;;;;5.32;1.30;;;14.80;99.90;;;;;;5052819;28;20095;-66
2022/07/06 02:06:00;;;;;;;5.13;1.40;;;15.40;99.90;;;;;;5051064;28;20509;-66
2022/07/06 02:08:26;;;;;;;4.05;1.13;;;14.80;99.90;;;;;;5050754;28;20049;-66
2022/07/06 02:10:52;;;;;;;3.35;1.15;;;14.90;99.90;;;;;;5051338;28;20048;-66
2022/07/06 02:13:17;;;;;;;6.80;1.73;;;15.20;99.90;;;;;;5051481;28;20044;-66
2022/07/06 02:15:43;;;;;;;3.03;0.88;;;14.70;99.90;;;;;;5051820;28;20069;-66
2022/07/06 02:18:08;;;;;;;5.80;1.20;;;14.90;99.90;;;;;;5051259;28;20047;-66
2022/07/06 02:20:34;;;;;;;3.25;1.33;;;14.80;99.90;;;;;;5051223;28;20080;-66
2022/07/06 02:23:00;;;;;;;5.35;0.95;;;15.10;99.90;;;;;;5050117;28;20050;-66
2022/07/06 02:25:25;;;;;;;3.85;1.10;;;14.60;99.90;;;;;;5052826;28;20040;-65
2022/07/06 02:27:51;;;;;;;4.00;0.88;;;14.50;99.90;;;;;;5052108;28;20033;-66
2022/07/06 02:30:17;;;;;;;6.03;1.05;;;14.50;99.90;;;;;;5051511;28;20183;-66
2022/07/06 02:32:42;;;;;;;6.75;1.45;;;14.50;99.90;;;;;;5052252;28;20047;-66
2022/07/06 02:35:08;;;;;;;2.40;0.73;;;14.40;99.90;;;;;;5050952;28;20041;-66
2022/07/06 02:37:34;;;;;;;6.47;1.35;;;14.40;99.90;;;;;;5050244;28;20041;-66
2022/07/06 02:39:59;;;;;;;5.32;1.10;;;14.30;99.90;;;;;;5050587;28;20051;-66
2022/07/06 02:42:25;;;;;;;3.92;0.93;;;14.30;99.90;;;;;;5050367;28;20182;-66
2022/07/06 02:44:53;;;;;;;4.20;1.13;;;14.20;99.90;;;;;;5052296;28;20039;-66
2022/07/06 02:47:19;;;;;;;6.75;1.30;;;14.20;99.90;;;;;;5051497;28;20128;-66
2022/07/06 02:49:44;;;;;;;3.95;1.00;;;14.10;99.90;;;;;;5050959;28;20143;-66
2022/07/06 02:52:10;;;;;;;5.85;1.17;;;14.10;99.90;;;;;;5050661;28;20501;-66
2022/07/06 02:54:36;;;;;;;3.78;0.77;;;;;;;;;;5051219;28;20381;-66
2022/07/06 02:57:02;;;;;;;4.90;1.40;;;14.00;99.90;;;;;;5050972;28;20063;-65
2022/07/06 02:59:27;;;;;;;5.70;1.50;;;14.00;99.90;;;;;;5051125;28;20041;-65
2022/07/06 03:01:53;;;;;;;6.22;1.77;;;13.90;99.90;;;;;;5050246;28;20451;-65
2022/07/06 03:04:18;;;;;;;4.45;1.00;;;13.90;99.90;;;;;;5051201;28;20037;-65
2022/07/06 03:06:44;;;;;;;4.57;1.35;;;13.80;99.90;;;;;;5051874;28;20068;-65
2022/07/06 03:09:10;;;;;;;3.33;1.30;;;13.80;99.90;;;;;;5051971;28;20041;-65
2022/07/06 03:11:35;;;;;;;5.82;1.10;;;13.70;99.90;;;;;;5050136;28;20064;-65
2022/07/06 03:14:05;;;;;;;6.53;1.05;;;13.70;99.90;;;;;;5050628;28;20040;-65
2022/07/06 03:16:31;;;;;;;5.53;1.05;;;13.70;99.90;;;;;;5052047;28;20410;-65
2022/07/06 03:18:57;;;;;;;6.80;1.55;;;13.60;99.90;;;;;;5032669;28;20045;-65
2022/07/06 03:21:24;;;;;;;5.40;1.70;;;13.50;99.90;;;;;;5050479;28;20053;-65
2022/07/06 03:23:49;;;;;;;6.65;1.20;;;13.50;99.90;;;;;;5050622;28;20463;-66
2022/07/06 03:26:18;;;;;;;3.42;1.23;;;;;;;;;;5049676;28;20158;-66
2022/07/06 03:28:44;;;;;;;4.03;1.25;;;;;;;;;;5051700;28;20044;-66
2022/07/06 03:31:10;;;;;;;4.18;1.20;;;;;;;;;;5051545;28;20045;-66
2022/07/06 03:33:36;;;;;;;5.65;1.33;;;13.30;99.90;;;;;;5049858;28;20044;-65
2022/07/06 03:36:01;;;;;;;5.20;0.90;;;13.30;99.90;;;;;;5051427;28;20108;-65
2022/07/06 03:38:27;;;;;;;3.10;0.95;;;13.20;99.90;;;;;;5051785;28;20508;-65
2022/07/06 03:40:52;;;;;;;5.40;1.27;;;13.10;99.90;;;;;;5049144;28;20044;-65
2022/07/06 03:43:18;;;;;;;7.70;1.30;;;13.20;99.90;;;;;;5050481;28;20133;-65
2022/07/06 03:45:44;;;;;;;4.30;1.38;;;13.10;99.90;;;;;;5049577;28;20051;-65
2022/07/06 03:48:10;;;;;;;3.53;1.00;;;13.00;99.90;;;;;;5050389;28;20367;-65
2022/07/06 03:50:36;;;;;;;5.28;1.27;;;13.00;99.90;;;;;;5050207;28;20102;-65
2022/07/06 03:53:01;;;;;;;3.88;1.10;;;13.00;99.90;;;;;;5050636;28;20045;-65
2022/07/06 03:55:27;;;;;;;3.92;1.42;;;13.00;99.90;;;;;;5050610;28;20040;-65
2022/07/06 03:57:53;;;;;;;6.32;1.45;;;13.00;99.90;;;;;;5050185;28;20040;-65
2022/07/06 04:00:18;;;;;;;3.97;1.02;;;13.00;99.90;;;;;;5052669;28;20460;-65
2022/07/06 04:02:44;;;;;;;2.95;1.00;;;13.30;99.90;;;;;;5037216;28;20041;-65
2022/07/06 04:05:10;;;;;;;4.80;1.23;;;12.90;99.90;;;;;;5054878;28;20402;-65
2022/07/06 04:07:35;;;;;;;5.65;1.40;;;12.90;99.90;;;;;;5054630;28;20120;-65
2022/07/06 04:10:01;;;;;;;4.10;1.10;;;12.90;99.90;;;;;;5036486;28;20037;-65
2022/07/06 04:12:26;;;;;;;4.70;1.20;;;13.00;99.90;;;;;;5054138;28;20462;-65
2022/07/06 04:14:52;;;;;;;9.60;1.73;;;13.00;99.90;;;;;;5052900;28;20127;-65
2022/07/06 04:20:05;;;;;;;3.95;1.00;;;13.10;99.90;;;;;;5054752;28;20185;-65
2022/07/06 04:22:31;;;;;;;4.22;0.82;;;13.20;99.90;;;;;;5052715;28;20053;-65
2022/07/06 04:24:57;;;;;;;5.03;1.20;;;13.20;99.90;;;;;;5054125;28;20037;-65
2022/07/06 04:27:22;;;;;;;8.45;1.50;;;13.30;99.90;;;;;;5053654;28;20044;-65
2022/07/06 04:29:48;;;;;;;4.72;0.90;;;13.30;99.90;;;;;;5052230;28;20122;-65
2022/07/06 04:32:13;;;;;;;4.25;1.10;;;13.30;99.90;;;;;;5053341;28;20037;-65
2022/07/06 04:34:39;;;;;;;5.93;1.15;;;13.30;99.90;;;;;;5053352;28;20128;-65
2022/07/06 04:37:05;;;;;;;6.28;1.20;;;13.30;99.90;;;;;;5053463;28;20037;-65
2022/07/06 04:39:31;;;;;;;4.15;1.00;;;13.30;99.90;;;;;;5053365;28;20492;-65
2022/07/06 04:41:57;;;;;;;3.05;1.08;;;13.30;99.90;;;;;;5053486;28;20052;-65
2022/07/06 04:44:23;;;;;;;4.80;1.30;;;13.20;99.90;;;;;;5054338;28;20045;-65
2022/07/06 04:46:48;;;;;;;5.15;1.40;;;13.10;99.90;;;;;;5054115;28;20041;-65
2022/07/06 04:49:14;;;;;;;5.15;1.20;;;13.20;99.90;;;;;;5053436;28;20041;-65
2022/07/06 04:51:40;;;;;;;5.47;1.45;;;13.20;99.90;;;;;;5054252;28;20470;-66
2022/07/06 04:54:05;;;;;;;2.88;1.08;;;13.20;99.90;;;;;;5052429;28;20041;-65
2022/07/06 04:56:31;;;;;;;6.32;1.27;;;13.30;99.90;;;;;;5052282;28;20041;-65
2022/07/06 04:58:56;;;;;;;4.57;1.10;;;13.30;99.90;;;;;;5053616;28;20539;-65
2022/07/06 05:01:22;;;;;;;4.65;1.20;;;13.40;99.90;;;;;;5052863;28;20045;-65
2022/07/06 05:03:48;;;;;;;5.90;1.20;;;13.40;99.90;;;;;;5051745;28;20120;-65
2022/07/06 05:06:14;;;;;;;3.15;1.00;;;13.50;99.90;;;;;;5052751;28;20045;-65
2022/07/06 05:08:40;;;;;;;3.63;1.02;;;13.60;99.90;;;;;;5052968;28;20134;-65
2022/07/06 05:11:05;;;;;;;3.47;1.00;;;13.70;99.90;;;;;;5051771;28;20076;-65
2022/07/06 05:13:31;;;;;;;4.00;1.00;;;13.80;99.90;;;;;;5053869;28;20043;-65
2022/07/06 05:15:57;;;;;;;5.93;1.10;;;13.90;99.90;;;;;;5052141;28;20116;-66
2022/07/06 05:18:22;;;;;;;4.82;1.10;;;14.00;99.90;;;;;;5051981;28;20410;-65
2022/07/06 05:20:48;;;;;;;4.72;1.10;;;14.00;99.90;;;;;;5052005;28;20052;-66
2022/07/06 05:23:13;;;;;;;4.63;1.50;;;14.10;99.90;;;;;;5053505;28;20045;-66
2022/07/06 05:25:39;;;;;;;5.85;1.27;;;14.20;99.90;;;;;;5053028;28;20072;-66
2022/07/06 05:28:05;;;;;;;4.90;1.42;;;14.30;99.90;;;;;;5052842;28;20460;-65
2022/07/06 05:30:30;;;;;;;6.70;1.83;;;14.40;99.90;;;;;;5052565;28;20041;-65
2022/07/06 05:32:56;;;;;;;5.93;1.52;;;14.50;99.90;;;;;;5051287;28;20047;-66
2022/07/06 05:35:22;;;;;;;5.63;1.65;;;14.70;99.90;;;;;;5053733;28;20497;-66
2022/07/06 05:37:47;;;;;;;8.15;1.17;;;15.10;99.90;;;;;;5052161;28;20402;-66
2022/07/06 05:40:13;;;;;;;5.97;1.27;;;15.40;99.90;;;;;;5052572;28;20094;-66
2022/07/06 05:42:39;;;;;;;8.75;1.98;;;;;;;;;;5051999;28;20443;-66
2022/07/06 05:45:06;;;;;;;5.70;1.58;;;15.20;99.90;;;;;;5052593;28;20045;-66
2022/07/06 05:50:17;;;;;;;5.78;1.20;;;;;;;;;;5051811;28;20465;-66
2022/07/06 05:52:44;;;;;;;3.63;1.10;;;15.70;99.90;;;;;;5034342;28;20045;-66
2022/07/06 05:55:13;;;;;;;3.35;1.13;;;15.80;99.90;;;;;;5052903;28;20041;-66
2022/07/06 05:57:40;;;;;;;5.05;1.35;;;16.00;99.90;;;;;;5051649;28;20040;-66
2022/07/06 06:00:06;;;;;;;5.07;1.58;;;16.00;99.90;;;;;;5051625;28;20049;-66
2022/07/06 06:02:42;;;;;;;7.63;1.70;;;16.20;99.90;;;;;;5053290;28;20040;-66
2022/07/06 06:05:10;;;;;;;4.22;1.10;;;16.30;99.90;;;;;;5034885;28;20044;-66
2022/07/06 06:07:38;;;;;;;4.70;0.85;;;16.30;99.90;;;;;;5050836;28;20052;-66
2022/07/06 06:10:08;;;;;;;3.67;1.23;;;16.30;99.90;;;;;;5052044;28;20045;-66
2022/07/06 06:12:34;;;;;;;4.53;1.48;;;16.40;99.90;;;;;;5052993;28;20041;-66
2022/07/06 06:15:00;;;;;;;4.03;1.30;;;16.50;99.90;;;;;;5051575;28;20060;-66
2022/07/06 06:17:26;;;;;;;4.32;1.40;;;16.60;99.90;;;;;;5051706;28;20047;-66
2022/07/06 06:19:52;;;;;;;3.85;1.05;;;16.60;99.90;;;;;;5052469;28;20405;-65
2022/07/06 06:22:18;;;;;;;4.45;1.00;;;16.70;99.90;;;;;;5051569;28;20141;-66
2022/07/06 06:24:43;;;;;;;5.90;2.08;;;16.70;99.90;;;;;;5052168;28;20044;-65
2022/07/06 06:27:09;;;;;;;4.07;1.15;;;16.80;99.90;;;;;;5051061;28;20394;-65
2022/07/06 06:29:35;;;;;;;5.53;1.08;;;16.80;99.90;;;;;;5050681;28;20045;-65
2022/07/06 06:32:00;;;;;;;6.95;1.20;;;16.90;99.90;;;;;;5051945;28;20561;-65
2022/07/06 06:34:26;;;;;;;4.03;0.98;;;17.00;99.90;;;;;;5051388;28;20490;-66
2022/07/06 06:36:51;;;;;;;5.88;1.08;;;17.00;99.90;;;;;;5050508;28;20043;-66
2022/07/06 06:39:17;;;;;;;5.35;1.23;;;17.00;99.90;;;;;;5052069;28;20117;-65
2022/07/06 06:41:43;;;;;;;4.40;0.90;;;16.80;99.90;;;;;;5049979;28;20371;-65
2022/07/06 06:44:08;;;;;;;3.08;0.90;;;16.60;99.90;;;;;;5052321;28;20041;-66
2022/07/06 06:46:34;;;;;;;4.03;0.95;;;16.60;99.90;;;;;;5054770;28;20032;-65
2022/07/06 06:48:59;;;;;;;4.85;0.80;;;16.80;99.90;;;;;;5060146;28;20508;-66
2022/07/06 06:51:26;;;;;;;5.28;0.93;;;17.00;99.90;;;;;;5058984;28;20040;-65
2022/07/06 06:53:51;;;;;;;4.60;0.93;;;17.00;99.90;;;;;;5047052;28;20564;-65
2022/07/06 06:56:17;;;;;;;4.18;0.70;;;17.10;99.90;;;;;;5043074;28;20151;-66
2022/07/06 06:58:43;;;;;;;3.88;0.80;;;17.10;99.90;;;;;;5071949;28;20504;-65
2022/07/06 07:01:09;;;;;;;3.50;1.00;;;17.10;99.90;;;;;;5046728;28;20043;-66
2022/07/06 07:03:35;;;;;;;3.60;0.70;;;16.90;99.90;;;;;;5054101;28;20120;-66
2022/07/06 07:06:01;;;;;;;2.65;0.80;;;16.90;99.90;;;;;;5051403;28;20047;-66
2022/07/06 07:08:26;;;;;;;2.42;0.75;;;16.90;99.90;;;;;;5066298;28;20050;-66
2022/07/06 07:10:52;;;;;;;2.78;0.80;;;16.90;99.90;;;;;;5055013;28;20044;-66
2022/07/06 07:13:18;;;;;;;3.80;1.20;;;17.00;99.90;;;;;;5067886;28;20473;-66
2022/07/06 07:15:44;;;;;;;4.25;0.93;;;;;;;;;;5063929;28;20041;-66
2022/07/06 07:18:10;;;;;;;2.63;0.80;;;17.40;99.90;;;;;;5057523;28;20037;-66
2022/07/06 07:20:35;;;;;;;3.85;1.10;;;17.40;99.90;;;;;;5048035;28;20056;-66
2022/07/06 07:23:01;;;;;;;5.28;0.80;;;17.50;99.90;;;;;;5059029;28;20044;-67
2022/07/06 07:25:27;;;;;;;2.55;0.77;;;17.40;99.90;;;;;;5068081;28;20131;-66
2022/07/06 07:27:53;;;;;;;3.42;0.80;;;17.30;99.90;;;;;;5047302;28;20052;-67
2022/07/06 07:30:19;;;;;;;3.75;0.80;;;17.40;99.90;;;;;;5054631;28;20702;-67
2022/07/06 07:32:45;;;;;;;4.13;1.00;;;17.40;99.90;;;;;;5050023;28;20402;-67
2022/07/06 07:35:11;;;;;;;2.83;0.80;;;17.40;99.90;;;;;;5062892;28;20048;-66
2022/07/06 07:37:37;;;;;;;3.97;1.00;;;17.30;99.90;;;;;;5036768;28;20041;-66
2022/07/06 07:40:04;;;;;;;4.72;0.93;;;17.30;99.90;;;;;;5050854;28;20053;-67
2022/07/06 07:42:30;;;;;;;4.20;1.17;;;17.30;99.90;;;;;;5052401;28;20041;-66
2022/07/06 07:44:55;;;;;;;3.55;0.80;;;17.40;99.90;;;;;;5051113;28;20488;-66
2022/07/06 07:47:21;;;;;;;5.38;1.00;;;17.50;99.90;;;;;;5051920;28;20040;-66
2022/07/06 07:49:47;;;;;;;7.88;1.38;;;17.40;99.90;;;;;;5055541;28;20049;-66
2022/07/06 07:52:13;;;;;;;3.67;0.90;;;17.40;99.90;;;;;;5070626;28;20044;-66
2022/07/06 07:54:41;;;;;;;3.55;0.93;;;;;;;;;;5063938;28;20043;-63
2022/07/06 07:57:07;;;;;;;5.97;1.08;;;;;;;;;;5044315;28;20040;-64
2022/07/06 07:59:33;;;;;;;4.32;0.90;;;;;;;;;;5074752;28;20101;-62
2022/07/06 08:01:58;;;;;;;4.63;0.88;;;17.70;99.90;;;;;;5073455;28;20444;-62
2022/07/06 08:04:24;;;;;;;3.67;0.80;;;17.60;99.90;;;;;;5064388;28;20049;-65
2022/07/06 08:06:50;;;;;;;2.67;0.80;;;17.60;99.90;;;;;;5053110;28;20473;-63
2022/07/06 08:09:17;;;;;;;3.88;1.10;;;17.50;99.90;;;;;;5053703;28;20068;-65
2022/07/06 08:11:43;;;;;;;3.08;1.05;;;17.30;99.90;;;;;;5057056;28;20048;-63
2022/07/06 08:14:09;;;;;;;5.90;1.35;;;17.20;99.90;;;;;;5052935;28;20044;-63
2022/07/06 08:16:35;;;;;;;4.47;0.98;;;17.30;99.90;;;;;;5055058;28;20124;-63
2022/07/06 08:19:00;;;;;;;4.75;0.82;;;17.60;99.90;;;;;;5053918;28;20043;-64
2022/07/06 08:21:26;;;;;;;4.15;1.58;;;17.70;99.90;;;;;;5061975;28;20060;-64
2022/07/06 08:23:53;;;;;;;2.78;0.80;;;17.90;99.90;;;;;;5074225;28;20109;-63
2022/07/06 08:26:19;;;;;;;5.63;1.00;;;17.90;99.90;;;;;;5055496;28;20051;-64
2022/07/06 08:28:44;;;;;;;5.35;1.00;;;18.00;99.90;;;;;;5072594;28;20045;-64
2022/07/06 08:31:10;;;;;;;2.00;0.68;;;18.00;99.90;;;;;;5058490;28;20033;-64
2022/07/06 08:33:36;;;;;;;3.53;0.80;;;17.80;99.90;;;;;;5055855;28;20548;-63
2022/07/06 08:36:01;;;;;;;2.55;0.82;;;17.80;99.90;;;;;;5064504;28;20039;-63
2022/07/06 08:38:27;;;;;;;3.42;1.08;;;17.90;99.90;;;;;;5073046;28;20032;-62
2022/07/06 08:40:54;;;;;;;2.80;0.82;;;18.00;99.90;;;;;;5061461;28;20040;-62
2022/07/06 08:43:20;;;;;;;2.30;0.90;;;17.90;99.90;;;;;;5059228;28;20543;-62
2022/07/06 08:45:49;;;;;;;3.50;1.00;;;17.90;99.90;;;;;;5052856;28;20112;-62
2022/07/06 08:48:17;;;;;;;4.57;0.82;;;18.00;99.90;;;;;;5064855;28;20094;-62
2022/07/06 08:50:43;;;;;;;5.07;1.10;;;18.10;99.90;;;;;;5072148;28;20045;-62
2022/07/06 08:53:09;;;;;;;3.78;1.00;;;18.20;99.90;;;;;;5068575;28;20040;-63
2022/07/06 08:55:35;;;;;;;4.93;1.10;;;18.60;99.90;;;;;;5053821;28;20516;-62
2022/07/06 08:58:01;;;;;;;3.50;0.80;;;18.60;99.90;;;;;;5038657;28;20523;-62
2022/07/06 09:00:27;;;;;;;6.28;1.10;;;18.50;99.90;;;;;;5056131;28;20029;-62
2022/07/06 09:02:56;;;;;;;6.85;1.17;;;18.20;99.90;;;;;;5053366;28;20040;-62
2022/07/06 09:05:23;;;;;;;4.70;0.90;;;17.90;99.90;;;;;;5052898;28;20060;-62
2022/07/06 09:07:50;;;;;;;3.88;0.90;;;18.00;99.90;;;;;;5052856;28;20477;-62
2022/07/06 09:10:18;;;;;;;2.95;0.88;;;18.10;99.90;;;;;;5063422;28;20041;-62
2022/07/06 09:12:44;;;;;;;4.78;1.05;;;18.10;99.90;;;;;;5063105;28;20045;-62
2022/07/06 09:15:10;;;;;;;2.92;0.80;;;18.50;99.90;;;;;;5052580;28;20041;-62
2022/07/06 09:17:39;;;;;;;3.20;0.85;;;18.40;99.90;;;;;;5035596;28;20048;-62
2022/07/06 09:20:07;;;;;;;3.20;0.85;;;;;;;;;;5061233;28;20044;-62
2022/07/06 09:22:33;;;;;;;4.25;1.10;;;;;;;;;;5062935;28;20139;-62
2022/07/06 09:25:05;;;;;;;6.75;1.05;;;;;;;;;;5051074;28;20136;-62
2022/07/06 09:27:31;;;;;;;5.72;1.05;;;19.00;99.90;;;;;;5065135;28;20067;-62
2022/07/06 09:30:04;;;;;;;4.53;1.40;;;19.00;99.90;;;;;;5068655;28;20492;-62
2022/07/06 09:32:32;;;;;;;5.35;1.38;;;;;;;;;;5051560;28;20064;-61
2022/07/06 09:34:58;;;;;;;9.73;1.15;;;;;;;;;;5066556;28;20065;-62
2022/07/06 09:37:33;;;;;;;3.85;0.90;;;;;;;;;;5052632;28;20043;-62
2022/07/06 09:39:59;;;;;;;5.97;1.73;;;;;;;;;;5058169;28;20040;-62
2022/07/06 09:42:26;;;;;;;5.38;1.05;;;;;;;;;;5060043;28;20052;-62
2022/07/06 09:44:52;;;;;;;5.57;0.80;;;;;;;;;;5061563;28;20044;-62
2022/07/06 09:47:18;;;;;;;4.63;1.33;;;;;;;;;;5062048;28;20048;-63
2022/07/06 09:49:46;;;;;;;4.22;0.80;;;19.10;99.90;;;;;;5056791;28;20047;-62
2022/07/06 09:52:12;;;;;;;4.50;0.88;;;19.10;99.90;;;;;;5068259;28;20120;-62
2022/07/06 09:54:39;;;;;;;3.65;0.70;;;19.20;99.90;;;;;;5069508;28;20036;-62
2022/07/06 09:57:06;;;;;;;1.42;0.70;;;19.30;99.90;;;;;;5050719;28;20047;-62
2022/07/06 09:59:34;;;;;;;2.97;0.95;;;19.30;99.90;;;;;;5068142;28;20076;-62
2022/07/06 10:02:05;;;;;;;3.55;1.10;;;19.10;98.60;;;;;;5036087;28;20041;-63
2022/07/06 10:04:31;;;;;;;2.10;0.88;;;19.00;98.70;;;;;;5063985;28;20040;-62
2022/07/06 10:06:58;;;;;;;3.60;0.90;;;19.10;99.80;;;;;;5068841;28;20033;-62
2022/07/06 10:09:26;;;;;;;3.17;1.00;;;19.20;99.90;;;;;;5068963;28;20055;-62
2022/07/06 10:11:55;;;;;;;3.47;1.10;;;19.30;99.90;;;;;;5068630;28;20052;-62
2022/07/06 10:14:48;;;;;;;3.08;0.90;;;19.30;99.90;;;;;;5068503;28;20051;-63
2022/07/06 10:17:15;;;;;;;3.08;0.80;;;19.30;99.90;;;;;;5064562;28;20418;-62
2022/07/06 10:19:44;;;;;;;2.58;0.85;;;19.30;99.90;;;;;;5069138;28;20040;-62
2022/07/06 10:22:11;;;;;;;2.88;0.82;;;19.50;99.90;;;;;;5066637;28;20048;-62
2022/07/06 10:24:43;;;;;;;4.93;1.55;;;19.80;99.90;;;;;;5056110;28;20059;-62
2022/07/06 10:27:10;;;;;;;3.28;0.75;;;19.70;99.90;;;;;;5051682;28;20421;-62
2022/07/06 10:29:35;;;;;;;1.77;0.60;;;19.70;98.70;;;;;;5058023;28;20430;-62
2022/07/06 10:32:02;;;;;;;3.00;1.00;;;19.90;97.80;;;;;;5068144;28;20044;-63
2022/07/06 10:34:27;;;;;;;2.75;0.77;;;19.90;98.00;;;;;;5057350;28;20486;-63
2022/07/06 10:36:54;;;;;;;2.90;0.90;;;20.00;97.60;;;;;;5067141;28;20111;-62
2022/07/06 10:42:56;;;;;;;3.08;1.00;;;20.10;96.50;;;;;;5068626;28;20075;-63
2022/07/06 10:45:27;;;;;;;3.83;0.90;;;20.10;96.40;;;;;;5039316;28;20053;-63
2022/07/06 10:48:11;;;;;;;2.60;0.90;;;20.10;96.30;;;;;;5049085;28;20037;-62
2022/07/06 10:50:41;;;;;;;5.53;1.00;;;20.10;95.90;;;;;;5048387;28;20440;-62
2022/07/06 10:53:11;;;;;;;2.35;0.85;;;20.00;96.90;;;;;;5053363;28;20036;-62
2022/07/06 10:55:39;;;;;;;3.10;0.75;;;20.00;97.00;;;;;;5067347;28;20032;-63
2022/07/06 10:58:05;;;;;;;5.95;1.15;;;20.10;96.70;;;;;;5067798;28;20784;-62
2022/07/06 11:00:52;;;;;;;3.10;0.90;;;20.10;96.60;;;;;;5066050;28;20453;-63
2022/07/06 11:03:30;;;;;;;2.40;0.77;;;20.20;98.00;;;;;;5053723;28;20404;-63
2022/07/06 11:06:10;;;;;;;2.58;0.70;;;20.30;97.70;;;;;;5051031;28;20045;-62
2022/07/06 11:08:58;;;;;;;2.70;0.73;;;20.30;96.10;;;;;;5049982;28;20132;-62
2022/07/06 11:11:32;;;;;;;4.43;1.23;;;20.30;95.30;;;;;;5052630;28;20119;-61
2022/07/06 11:14:17;;;;;;;;;;;20.30;96.10;;;;;;5056356;28;20045;-61
2022/07/06 11:16:48;;;;;;;3.35;1.02;;;20.20;96.60;;;;;;5067890;28;19917;-61
2022/07/06 11:19:19;;;;;;;3.38;1.17;;;20.10;98.00;;;;;;5053143;28;20040;-62
2022/07/06 11:21:51;;;;;;;3.75;1.10;;;20.00;98.50;;;;;;5065605;28;20416;-62
2022/07/06 11:24:21;;;;;;;2.22;0.73;;;19.80;98.70;;;;;;5071324;28;20048;-62
2022/07/06 11:26:49;;;;;;;3.22;0.90;;;19.80;98.40;;;;;;5069679;28;20052;-62
2022/07/06 11:29:17;;;;;;;7.18;1.08;;;19.60;98.40;;;;;;5037885;28;20417;-62
2022/07/06 11:31:47;;;;;;;5.20;0.80;;;19.70;98.60;;;;;;5065384;28;20059;-61
2022/07/06 11:34:22;;;;;;;2.13;0.80;;;19.80;98.40;;;;;;5068307;28;20577;-61
2022/07/06 11:36:49;;;;;;;2.45;0.82;;;20.10;99.60;;;;;;5055564;28;20051;-61
2022/07/06 11:39:15;;;;;;;2.65;1.05;;;20.00;99.90;;;;;;5060824;28;20133;-61
2022/07/06 11:41:42;;;;;;;4.43;0.95;;;20.10;97.70;;;;;;5067412;28;20396;-61
2022/07/06 11:44:08;;;;;;;4.00;1.20;;;20.10;97.80;;;;;;5055409;28;20124;-61
2022/07/06 11:46:34;;;;;;;1.75;0.70;;;20.10;98.10;;;;;;5065441;28;20119;-62
2022/07/06 11:49:06;;;;;;;2.60;0.80;;;20.10;97.70;;;;;;5061690;28;20045;-62
2022/07/06 11:51:35;;;;;;;2.20;0.70;;;20.10;97.70;;;;;;5059241;28;20793;-61
2022/07/06 11:54:07;;;;;;;2.30;0.90;;;20.20;98.40;;;;;;5052084;28;20045;-62
2022/07/06 11:56:34;;;;;;;2.47;1.00;;;20.30;98.10;;;;;;5067550;28;20053;-61
2022/07/06 11:59:00;;;;;;;2.78;0.80;;;20.30;97.00;;;;;;5050339;28;20055;-62
2022/07/06 12:01:33;;;;;;;3.83;0.98;;;20.30;97.10;;;;;;5051569;28;20037;-62
2022/07/06 12:04:00;;;;;;;2.92;1.20;;;20.20;97.60;;;;;;5048656;28;20123;-62
2022/07/06 12:06:28;;;;;;;2.70;0.90;;;20.30;97.40;;;;;;5050358;28;20048;-63
2022/07/06 12:08:59;;;;;;;2.28;0.70;;;20.30;96.60;;;;;;5050875;28;20501;-62
2022/07/06 12:11:30;;;;;;;1.80;0.70;;;20.30;96.90;;;;;;5052144;28;20452;-62
2022/07/06 12:13:58;;;;;;;2.53;0.88;;;20.40;97.40;;;;;;5063586;28;20386;-62
2022/07/06 12:16:35;;;;;;;3.42;0.80;;;20.50;96.80;;;;;;5063317;28;20036;-63
2022/07/06 12:19:05;;;;;;;2.35;0.80;;;20.60;95.10;;;;;;5056745;28;20444;-63
2022/07/06 12:21:32;;;;;;;4.80;0.90;;;20.60;95.00;;;;;;5068329;28;20055;-63
2022/07/06 12:23:58;;;;;;;5.07;1.45;;;20.60;95.00;;;;;;5068627;28;20102;-62
2022/07/06 12:26:29;;;;;;;2.55;1.00;;;20.70;94.40;;;;;;5069675;28;20048;-63
2022/07/06 12:29:09;;;;;;;2.80;0.90;;;19.00;93.70;;;;;;5052754;28;20054;-64
2022/07/06 12:31:43;;;;;;;2.95;1.15;;;20.70;94.20;;;;;;5058731;28;20037;-64
2022/07/06 12:34:15;;;;;;;3.97;0.90;;;20.60;94.20;;;;;;5068322;28;20044;-64
2022/07/06 12:36:48;;;;;;;4.88;1.10;;;20.50;93.40;;;;;;5062000;28;20033;-65
2022/07/06 12:39:17;;;;;;;3.53;0.90;;;20.40;94.30;;;;;;5060029;28;20040;-65
2022/07/06 12:42:04;;;;;;;3.08;1.00;;;20.30;94.80;;;;;;5062020;28;20043;-63
2022/07/06 12:44:30;;;;;;;3.97;1.02;;;20.20;94.80;;;;;;5058131;28;20375;-62
2022/07/06 12:47:08;;;;;;;3.22;1.00;;;20.10;94.90;;;;;;5048519;28;20051;-63
2022/07/06 12:49:35;;;;;;;4.10;1.30;;;20.00;93.00;;;;;;5066655;28;20040;-62
2022/07/06 12:52:07;;;;;;;3.15;1.13;;;19.90;94.20;;;;;;5067994;28;20041;-63
2022/07/06 12:54:43;;;;;;;2.95;1.23;;;19.80;94.80;;;;;;5058080;28;20037;-62
2022/07/06 12:57:17;;;;;;;3.58;0.80;;;19.80;94.40;;;;;;5052324;28;20569;-63
2022/07/06 12:59:53;;;;;;;5.10;0.88;;;19.80;94.60;;;;;;5055277;28;20040;-63
2022/07/06 13:02:36;;;;;;;3.47;0.80;;;19.90;94.70;;;;;;5063598;28;20528;-62